Time;durP1;ratioP1;P1;durP2;ratioP2;P2;SDS_P1;SDS_P2;PMS_P1;PMS_P2;Temp;Humidity;BMP_temperature;BMP_pressure;BME280_temperature;BME280_humidity;BME280_pressure;Samples;Min_cycle;Max_cycle;Signal;HPM_P1;HPM_P2
2022/08/31 00:04:11;;;;;;;2.90;2.70;;;18.00;99.90;;;;;;6191242;23;20375;-84
2022/08/31 00:06:40;;;;;;;3.60;2.83;;;18.00;99.90;;;;;;6190519;23;20442;-85
2022/08/31 00:09:10;;;;;;;2.57;2.37;;;18.00;99.90;;;;;;6191311;23;20391;-85
2022/08/31 00:11:40;;;;;;;4.63;2.80;;;18.10;99.90;;;;;;6190662;23;20409;-83
2022/08/31 00:14:08;;;;;;;2.53;2.30;;;18.10;99.90;;;;;;6190526;23;20464;-85
2022/08/31 00:16:44;;;;;;;3.90;2.27;;;18.10;99.90;;;;;;6165439;23;20406;-83
2022/08/31 00:19:17;;;;;;;3.03;2.77;;;18.00;99.90;;;;;;6189623;23;20759;-84
2022/08/31 00:21:44;;;;;;;5.30;3.63;;;18.20;99.90;;;;;;6165704;23;20481;-84
2022/08/31 00:24:13;;;;;;;4.50;3.00;;;18.00;99.90;;;;;;6165860;23;20425;-86
2022/08/31 00:26:42;;;;;;;3.03;2.73;;;18.10;99.90;;;;;;6195366;23;20451;-86
2022/08/31 00:29:15;;;;;;;2.70;2.50;;;18.00;99.90;;;;;;6208607;23;20420;-85
2022/08/31 00:31:52;;;;;;;2.13;1.93;;;18.20;99.90;;;;;;6208061;23;20405;-86
2022/08/31 00:34:26;;;;;;;2.97;2.40;;;18.20;99.90;;;;;;6165717;23;20440;-86
2022/08/31 00:36:56;;;;;;;3.43;3.13;;;18.30;99.90;;;;;;6190428;23;20998;-85
2022/08/31 00:39:24;;;;;;;2.40;2.20;;;18.20;99.90;;;;;;6165092;23;20386;-85
2022/08/31 00:41:53;;;;;;;2.57;2.37;;;18.20;99.90;;;;;;6190583;23;20421;-86
2022/08/31 00:44:21;;;;;;;2.50;2.30;;;18.40;99.90;;;;;;6192256;23;20441;-81
2022/08/31 00:46:48;;;;;;;2.47;2.27;;;18.30;99.90;;;;;;6193417;23;20454;-85
2022/08/31 00:49:28;;;;;;;2.47;2.27;;;18.10;99.90;;;;;;6199115;23;20729;-86
2022/08/31 00:52:00;;;;;;;2.63;2.23;;;18.00;99.90;;;;;;6195685;23;20496;-85
2022/08/31 00:54:38;;;;;;;1.80;1.70;;;18.00;99.90;;;;;;6193368;23;20942;-85
2022/08/31 00:57:07;;;;;;;2.70;2.17;;;18.20;99.90;;;;;;6194155;23;20484;-86
2022/08/31 00:59:35;;;;;;;2.50;2.10;;;18.40;99.90;;;;;;6194256;23;20461;-86
2022/08/31 01:02:03;;;;;;;2.33;2.13;;;18.40;99.90;;;;;;6169414;23;20398;-87
2022/08/31 01:04:34;;;;;;;1.83;1.73;;;18.40;99.90;;;;;;6194346;23;20480;-86
2022/08/31 01:07:03;;;;;;;4.00;1.97;;;18.10;99.90;;;;;;6168213;23;20435;-87
2022/08/31 01:09:34;;;;;;;2.50;2.20;;;18.10;99.90;;;;;;6195177;23;20413;-88
2022/08/31 01:12:06;;;;;;;2.40;2.20;;;18.00;99.90;;;;;;6204262;23;20421;-86
2022/08/31 01:14:37;;;;;;;2.60;2.40;;;18.00;99.90;;;;;;6212387;23;20405;-88
2022/08/31 01:17:08;;;;;;;1.80;1.70;;;18.20;99.90;;;;;;6204499;23;20390;-84
2022/08/31 01:20:09;;;;;;;4.80;2.60;;;18.60;99.90;;;;;;6168994;23;20417;-84
2022/08/31 01:23:08;;;;;;;3.57;2.67;;;18.60;99.90;;;;;;6190463;23;20414;-85
2022/08/31 01:25:41;;;;;;;2.70;2.50;;;18.70;99.90;;;;;;6193393;23;20425;-86
2022/08/31 01:28:09;;;;;;;2.50;1.67;;;18.70;99.90;;;;;;6168575;23;20382;-85
2022/08/31 01:30:41;;;;;;;2.57;2.33;;;18.80;99.90;;;;;;6192363;23;20468;-86
2022/08/31 01:33:11;;;;;;;2.60;2.40;;;18.90;99.90;;;;;;6192947;23;20918;-87
2022/08/31 01:35:43;;;;;;;2.50;2.30;;;18.90;99.90;;;;;;6167513;23;20492;-85
2022/08/31 01:38:14;;;;;;;4.50;3.20;;;18.90;99.90;;;;;;6193903;23;20436;-86
2022/08/31 01:41:01;;;;;;;3.50;2.40;;;18.90;99.90;;;;;;6191711;23;20377;-85
2022/08/31 01:43:42;;;;;;;5.17;2.50;;;18.80;99.90;;;;;;6194724;23;20462;-88
2022/08/31 01:46:13;;;;;;;3.80;2.27;;;18.80;99.90;;;;;;6193998;23;20452;-87
2022/08/31 01:48:45;;;;;;;2.90;2.50;;;18.80;99.90;;;;;;6168675;23;20500;-86
2022/08/31 01:51:26;;;;;;;2.90;2.70;;;18.70;99.90;;;;;;6193413;23;20405;-87
2022/08/31 01:54:03;;;;;;;3.23;2.70;;;18.60;99.90;;;;;;6193013;23;20478;-86
2022/08/31 01:56:40;;;;;;;10.43;3.27;;;18.60;99.90;;;;;;6193908;23;20515;-86
2022/08/31 01:59:13;;;;;;;3.33;3.03;;;18.70;99.90;;;;;;6170039;23;20385;-87
2022/08/31 02:01:49;;;;;;;6.40;2.70;;;18.10;99.90;;;;;;6193985;23;20410;-86
2022/08/31 02:04:21;;;;;;;4.20;3.10;;;17.60;99.90;;;;;;6172761;23;20386;-82
2022/08/31 02:06:53;;;;;;;4.33;3.17;;;17.60;99.90;;;;;;6171988;23;20474;-88
2022/08/31 02:09:33;;;;;;;;;;;;;;;;;;;;;
2022/08/31 02:12:03;;;;;;;3.07;2.77;;;17.30;99.90;;;;;;6191620;23;20369;-87
2022/08/31 02:14:38;;;;;;;6.70;3.10;;;17.50;99.90;;;;;;6191565;23;20420;-86
2022/08/31 02:17:07;;;;;;;6.77;3.77;;;17.80;99.90;;;;;;6167467;23;20421;-86
2022/08/31 02:19:40;;;;;;;5.10;3.90;;;17.80;99.90;;;;;;6168529;23;20478;-86
2022/08/31 02:22:14;;;;;;;3.47;3.17;;;17.90;99.90;;;;;;6196676;23;20365;-86
2022/08/31 02:24:45;;;;;;;3.37;2.90;;;18.10;99.90;;;;;;6196151;23;20409;-87
2022/08/31 02:27:12;;;;;;;4.10;2.87;;;18.10;99.90;;;;;;6193334;23;20415;-85
2022/08/31 02:29:40;;;;;;;2.80;2.60;;;18.10;99.90;;;;;;6191202;23;20456;-84
2022/08/31 02:32:10;;;;;;;3.60;3.03;;;17.90;99.90;;;;;;6193308;23;20409;-84
2022/08/31 02:34:47;;;;;;;3.50;3.20;;;17.90;99.90;;;;;;6192342;23;20375;-83
2022/08/31 02:37:16;;;;;;;4.87;3.20;;;18.10;99.90;;;;;;6166787;23;20413;-84
2022/08/31 02:39:46;;;;;;;3.70;3.33;;;18.10;99.90;;;;;;6192315;23;20373;-84
2022/08/31 02:42:17;;;;;;;3.30;2.97;;;18.00;99.90;;;;;;6191745;23;20477;-84
2022/08/31 02:44:44;;;;;;;2.97;2.77;;;18.00;99.90;;;;;;6192681;23;20410;-84
2022/08/31 02:47:13;;;;;;;3.50;3.27;;;17.70;99.90;;;;;;6191095;23;20437;-84
2022/08/31 02:49:42;;;;;;;5.20;4.37;;;17.60;99.90;;;;;;6191291;23;20417;-86
2022/08/31 02:52:13;;;;;;;5.77;3.67;;;17.50;99.90;;;;;;6168896;23;20446;-85
2022/08/31 02:54:40;;;;;;;4.67;3.17;;;17.50;99.90;;;;;;6193311;23;20633;-84
2022/08/31 02:57:10;;;;;;;3.80;3.50;;;17.60;99.90;;;;;;6199060;23;20414;-83
2022/08/31 02:59:38;;;;;;;6.80;3.80;;;17.40;99.90;;;;;;6180108;23;20394;-82
2022/08/31 03:02:07;;;;;;;3.63;3.43;;;17.40;99.90;;;;;;6203675;23;20417;-87
2022/08/31 03:04:37;;;;;;;4.53;4.23;;;17.60;99.90;;;;;;6202173;23;20402;-84
2022/08/31 03:07:05;;;;;;;5.00;4.50;;;17.30;99.90;;;;;;6197276;23;20725;-83
2022/08/31 03:09:32;;;;;;;10.93;4.30;;;17.30;99.90;;;;;;6192998;23;20709;-83
2022/08/31 03:11:59;;;;;;;3.47;3.17;;;17.20;99.90;;;;;;6193299;23;20409;-84
2022/08/31 03:14:29;;;;;;;4.30;3.90;;;17.40;99.90;;;;;;6193748;23;20493;-87
2022/08/31 03:16:56;;;;;;;4.87;4.47;;;17.40;99.90;;;;;;6193607;23;20777;-86
2022/08/31 03:19:24;;;;;;;6.00;4.23;;;17.20;99.90;;;;;;6166967;23;20486;-87
2022/08/31 03:21:57;;;;;;;5.07;4.57;;;17.00;99.90;;;;;;6193729;23;20480;-86
2022/08/31 03:24:26;;;;;;;5.20;4.70;;;16.90;99.90;;;;;;6193211;23;20398;-86
2022/08/31 03:26:54;;;;;;;5.30;3.67;;;17.00;99.90;;;;;;6192854;23;20817;-87
2022/08/31 03:29:24;;;;;;;4.83;4.40;;;16.90;99.90;;;;;;6193107;23;20406;-87
2022/08/31 03:31:54;;;;;;;4.40;4.00;;;16.60;99.90;;;;;;6193053;23;20406;-86
2022/08/31 03:34:22;;;;;;;5.27;4.77;;;16.90;99.90;;;;;;6166087;23;20406;-87
2022/08/31 03:36:50;;;;;;;6.23;4.20;;;16.90;99.90;;;;;;6192383;23;20418;-85
2022/08/31 03:39:22;;;;;;;4.10;3.80;;;16.80;99.90;;;;;;6191827;23;20482;-85
2022/08/31 03:41:49;;;;;;;4.53;3.87;;;16.80;99.90;;;;;;6165305;23;20457;-85
2022/08/31 03:44:22;;;;;;;5.40;4.90;;;16.70;99.90;;;;;;6191963;23;20398;-87
2022/08/31 03:46:50;;;;;;;5.53;5.03;;;16.90;99.90;;;;;;6192334;23;20449;-83
2022/08/31 03:49:17;;;;;;;4.40;3.50;;;16.70;99.90;;;;;;6167340;23;20397;-85
2022/08/31 03:51:45;;;;;;;6.50;4.20;;;16.90;99.90;;;;;;6191282;23;20408;-85
2022/08/31 03:54:19;;;;;;;4.50;4.10;;;17.00;99.90;;;;;;6192438;23;20474;-84
2022/08/31 03:56:47;;;;;;;4.07;3.77;;;17.10;99.90;;;;;;6192833;23;20409;-90
2022/08/31 03:59:14;;;;;;;4.87;4.20;;;17.10;99.90;;;;;;6193297;23;20426;-86
2022/08/31 04:01:42;;;;;;;5.03;4.20;;;17.00;99.90;;;;;;6191518;23;20402;-86
2022/08/31 04:04:11;;;;;;;3.83;3.53;;;16.70;99.90;;;;;;6192323;23;20426;-84
2022/08/31 04:06:40;;;;;;;5.47;4.60;;;16.40;99.90;;;;;;6190542;23;20504;-86
2022/08/31 04:09:11;;;;;;;8.23;3.93;;;16.30;99.90;;;;;;6191106;23;20401;-85
2022/08/31 04:11:44;;;;;;;5.53;4.40;;;16.30;99.90;;;;;;6191714;23;20378;-86
2022/08/31 04:14:13;;;;;;;4.83;4.13;;;16.50;99.90;;;;;;6190729;23;20445;-84
2022/08/31 04:16:42;;;;;;;5.60;5.00;;;16.50;99.90;;;;;;6192572;23;20466;-85
2022/08/31 04:19:10;;;;;;;4.73;3.90;;;16.50;99.90;;;;;;6190590;23;20396;-85
2022/08/31 04:21:39;;;;;;;5.50;3.83;;;16.30;99.90;;;;;;6179534;23;20515;-87
2022/08/31 04:24:10;;;;;;;6.47;4.70;;;16.50;99.90;;;;;;6205811;23;20403;-85
2022/08/31 04:26:42;;;;;;;6.20;4.77;;;16.80;99.90;;;;;;6190989;23;20442;-84
2022/08/31 04:29:09;;;;;;;5.67;4.60;;;17.10;99.90;;;;;;6191882;23;20384;-87
2022/08/31 04:31:41;;;;;;;5.10;4.70;;;17.20;99.90;;;;;;6193735;23;20432;-85
2022/08/31 04:34:12;;;;;;;4.67;4.23;;;17.30;99.90;;;;;;6192510;23;20469;-84
2022/08/31 04:36:44;;;;;;;4.07;3.63;;;17.30;99.90;;;;;;6190484;23;20481;-86
2022/08/31 04:39:11;;;;;;;6.10;4.70;;;17.20;99.90;;;;;;6167835;23;20383;-87
2022/08/31 04:41:43;;;;;;;4.80;4.40;;;17.00;99.90;;;;;;6192549;23;20608;-86
2022/08/31 04:44:14;;;;;;;6.23;4.30;;;16.90;99.90;;;;;;6191780;23;20635;-85
2022/08/31 04:46:47;;;;;;;4.53;4.13;;;16.90;99.90;;;;;;6191340;23;20438;-83
2022/08/31 04:49:14;;;;;;;4.30;3.90;;;17.00;99.90;;;;;;6192581;23;20416;-81
2022/08/31 04:51:44;;;;;;;5.70;4.80;;;16.90;99.90;;;;;;6192826;23;20975;-84
2022/08/31 04:54:13;;;;;;;10.30;5.17;;;16.80;99.90;;;;;;6193484;23;20402;-82
2022/08/31 04:56:44;;;;;;;8.00;5.67;;;16.60;99.90;;;;;;6166454;23;20409;-83
2022/08/31 04:59:16;;;;;;;5.53;5.00;;;16.70;99.90;;;;;;6194086;23;20438;-83
2022/08/31 05:01:47;;;;;;;11.50;5.70;;;16.80;99.90;;;;;;6192178;23;20436;-84
2022/08/31 05:04:15;;;;;;;7.80;6.67;;;16.70;99.90;;;;;;6193197;23;20386;-87
2022/08/31 05:06:47;;;;;;;7.57;5.90;;;16.90;99.90;;;;;;6193854;23;20693;-84
2022/08/31 05:09:19;;;;;;;6.90;5.37;;;17.00;99.90;;;;;;6167894;23;20456;-86
2022/08/31 05:11:53;;;;;;;6.83;5.33;;;17.10;99.90;;;;;;6169132;23;20564;-85
2022/08/31 05:14:23;;;;;;;10.80;7.00;;;17.20;99.90;;;;;;6193683;23;20398;-85
2022/08/31 05:17:05;;;;;;;5.90;5.10;;;17.30;99.90;;;;;;6194693;23;20389;-84
2022/08/31 05:19:41;;;;;;;5.87;5.27;;;17.20;99.90;;;;;;6170577;23;20389;-86
2022/08/31 05:22:09;;;;;;;7.20;5.67;;;17.30;99.90;;;;;;6195552;23;20458;-85
2022/08/31 05:24:38;;;;;;;5.40;4.53;;;17.40;99.90;;;;;;6193010;23;20420;-85
2022/08/31 05:27:08;;;;;;;6.80;6.10;;;17.40;99.90;;;;;;6195151;23;20693;-87
2022/08/31 05:29:35;;;;;;;5.87;5.30;;;17.50;99.90;;;;;;6194921;23;20430;-84
2022/08/31 05:32:02;;;;;;;7.20;6.30;;;17.40;99.90;;;;;;6194722;23;20680;-84
2022/08/31 05:34:37;;;;;;;5.83;5.07;;;17.30;99.90;;;;;;6176629;23;20370;-86
2022/08/31 05:37:05;;;;;;;5.97;5.37;;;17.40;99.90;;;;;;6197584;23;20397;-86
2022/08/31 05:39:33;;;;;;;4.97;4.47;;;17.30;99.90;;;;;;6194633;23;20800;-87
2022/08/31 05:42:03;;;;;;;5.10;4.60;;;17.50;99.90;;;;;;6193914;23;20397;-83
2022/08/31 05:44:33;;;;;;;6.07;5.33;;;17.50;99.90;;;;;;6197061;23;20371;-86
2022/08/31 05:47:06;;;;;;;11.30;6.97;;;17.40;99.90;;;;;;6194701;23;20457;-88
2022/08/31 05:49:34;;;;;;;9.90;5.60;;;17.50;99.90;;;;;;6192783;23;20385;-86
2022/08/31 05:52:06;;;;;;;5.07;4.27;;;17.60;99.90;;;;;;6194539;23;20682;-86
2022/08/31 05:54:38;;;;;;;4.93;4.53;;;17.60;99.90;;;;;;6194040;23;20413;-80
2022/08/31 05:57:06;;;;;;;6.20;4.47;;;17.60;99.90;;;;;;6193299;23;20477;-82
2022/08/31 05:59:39;;;;;;;9.20;4.63;;;17.60;99.90;;;;;;6193906;23;20493;-84
2022/08/31 06:02:09;;;;;;;5.30;4.80;;;17.80;99.90;;;;;;6192904;23;20756;-83
2022/08/31 06:04:38;;;;;;;4.80;4.20;;;17.70;99.90;;;;;;6192389;23;20465;-86
2022/08/31 06:07:10;;;;;;;6.47;5.80;;;17.70;99.90;;;;;;6167840;23;20461;-84
2022/08/31 06:09:38;;;;;;;8.23;5.10;;;17.60;99.90;;;;;;6166126;23;20422;-80
2022/08/31 06:12:09;;;;;;;7.43;4.70;;;17.70;99.90;;;;;;6192910;23;20405;-83
2022/08/31 06:14:39;;;;;;;4.60;4.20;;;17.50;99.90;;;;;;6192455;23;20757;-85
2022/08/31 06:17:11;;;;;;;5.30;4.60;;;17.50;99.90;;;;;;6192542;23;20406;-86
2022/08/31 06:19:39;;;;;;;4.93;4.50;;;17.50;99.90;;;;;;6194937;23;20441;-83
2022/08/31 06:22:06;;;;;;;7.30;4.10;;;17.60;99.90;;;;;;6195943;23;20438;-86
2022/08/31 06:24:37;;;;;;;5.07;4.57;;;17.60;99.90;;;;;;6195582;23;20500;-85
2022/08/31 06:27:11;;;;;;;4.03;3.40;;;17.80;99.90;;;;;;6171610;23;20524;-88
2022/08/31 06:29:42;;;;;;;7.00;5.13;;;17.90;99.90;;;;;;6195815;23;20448;-86
2022/08/31 06:32:13;;;;;;;4.63;4.23;;;18.10;99.90;;;;;;6169795;23;20429;-84
2022/08/31 06:34:41;;;;;;;4.83;4.43;;;18.40;99.90;;;;;;6196522;23;20410;-84
2022/08/31 06:37:12;;;;;;;10.57;3.90;;;18.50;99.90;;;;;;6169298;23;20441;-85
2022/08/31 06:39:45;;;;;;;9.20;4.33;;;18.50;99.90;;;;;;6192740;23;20401;-87
2022/08/31 06:42:12;;;;;;;10.50;4.27;;;18.20;99.90;;;;;;6194694;23;20414;-79
2022/08/31 06:44:40;;;;;;;5.23;4.43;;;18.30;99.90;;;;;;6194956;23;20394;-84
2022/08/31 06:47:07;;;;;;;5.47;3.83;;;18.30;99.90;;;;;;6192052;23;20460;-82
2022/08/31 06:49:36;;;;;;;5.20;3.77;;;18.10;99.90;;;;;;6192426;23;20719;-83
2022/08/31 06:52:17;;;;;;;6.10;5.50;;;17.80;99.90;;;;;;6193478;23;20413;-86
2022/08/31 06:54:44;;;;;;;3.97;3.60;;;17.70;99.90;;;;;;6165951;23;20477;-85
2022/08/31 06:57:11;;;;;;;5.90;3.80;;;17.50;99.90;;;;;;6189086;23;20426;-81
2022/08/31 06:59:38;;;;;;;7.57;4.30;;;17.40;99.90;;;;;;6191692;23;20574;-88
2022/08/31 07:02:06;;;;;;;6.40;3.73;;;17.40;99.90;;;;;;6192007;23;20437;-85
2022/08/31 07:04:40;;;;;;;4.30;3.90;;;17.40;99.90;;;;;;6191976;23;20385;-86
2022/08/31 07:07:10;;;;;;;4.53;3.83;;;17.40;99.90;;;;;;6166749;23;21058;-86
2022/08/31 07:09:39;;;;;;;5.40;4.73;;;17.50;99.90;;;;;;6193953;23;20539;-85
2022/08/31 07:12:09;;;;;;;5.20;4.00;;;17.50;99.90;;;;;;6193517;23;20424;-82
2022/08/31 07:14:37;;;;;;;5.50;4.30;;;17.40;99.90;;;;;;6194414;23;20613;-83
2022/08/31 07:17:04;;;;;;;5.27;4.50;;;17.20;99.90;;;;;;6193098;23;20483;-84
2022/08/31 07:19:32;;;;;;;5.40;4.90;;;17.10;99.90;;;;;;6192180;23;20393;-84
2022/08/31 07:22:00;;;;;;;8.23;5.33;;;17.00;99.90;;;;;;6191568;23;20799;-85
2022/08/31 07:24:29;;;;;;;5.17;4.73;;;17.00;99.90;;;;;;6191695;23;20414;-79
2022/08/31 07:27:03;;;;;;;13.00;4.87;;;17.00;99.90;;;;;;6191253;23;20393;-86
2022/08/31 07:29:38;;;;;;;6.67;6.07;;;17.10;99.90;;;;;;6201118;23;20395;-82
2022/08/31 07:32:11;;;;;;;11.73;4.80;;;17.30;99.90;;;;;;6203983;23;20406;-85
2022/08/31 07:34:42;;;;;;;6.53;4.90;;;17.20;99.90;;;;;;6171729;23;20378;-82
2022/08/31 07:42:48;;;;;;;5.93;4.30;;;17.60;99.90;;;;;;6192985;23;20445;-89
2022/08/31 07:45:20;;;;;;;5.87;3.80;;;17.70;99.90;;;;;;6169853;23;20365;-87
2022/08/31 07:47:50;;;;;;;4.37;3.90;;;18.00;99.90;;;;;;6193671;23;20396;-86
2022/08/31 07:50:19;;;;;;;6.23;4.97;;;18.40;99.90;;;;;;6191383;23;20849;-83
2022/08/31 07:52:50;;;;;;;5.70;3.90;;;18.30;99.90;;;;;;6191833;23;20411;-86
2022/08/31 07:55:21;;;;;;;6.53;4.90;;;18.30;99.90;;;;;;6197112;23;20407;-85
2022/08/31 07:57:52;;;;;;;5.13;4.23;;;18.30;99.90;;;;;;6207337;23;20426;-85
2022/08/31 08:00:26;;;;;;;5.87;4.03;;;18.30;99.90;;;;;;6176347;23;20386;-81
2022/08/31 08:02:53;;;;;;;4.60;4.20;;;18.40;99.90;;;;;;6196955;23;20406;-88
2022/08/31 08:05:26;;;;;;;6.57;4.70;;;18.60;99.90;;;;;;6192592;23;20460;-82
2022/08/31 08:08:06;;;;;;;4.93;4.43;;;18.60;99.90;;;;;;6166383;23;20415;-81
2022/08/31 08:10:46;;;;;;;5.47;4.03;;;18.70;99.90;;;;;;6191935;23;20430;-84
2022/08/31 08:13:31;;;;;;;5.83;3.70;;;18.80;99.90;;;;;;6192229;23;20438;-87
2022/08/31 08:15:59;;;;;;;4.13;3.73;;;18.80;99.90;;;;;;6192099;23;20353;-85
2022/08/31 08:18:31;;;;;;;4.57;3.30;;;18.90;99.90;;;;;;6167846;23;20748;-85
2022/08/31 08:21:03;;;;;;;8.00;4.83;;;19.40;99.90;;;;;;6193238;23;20444;-83
2022/08/31 08:23:33;;;;;;;5.10;3.83;;;19.50;99.90;;;;;;6165792;23;20582;-82
2022/08/31 08:26:07;;;;;;;3.60;3.07;;;19.60;99.90;;;;;;6191172;23;20990;-85
2022/08/31 08:28:46;;;;;;;5.63;3.80;;;19.40;99.90;;;;;;6168920;23;20433;-82
2022/08/31 08:31:17;;;;;;;5.60;3.17;;;19.30;99.90;;;;;;6192881;23;20477;-84
2022/08/31 08:33:45;;;;;;;5.33;3.83;;;19.40;99.90;;;;;;6190759;23;20413;-85
2022/08/31 08:36:16;;;;;;;4.30;4.00;;;19.40;99.90;;;;;;6190885;23;20426;-87
2022/08/31 08:38:50;;;;;;;7.90;4.10;;;19.10;99.90;;;;;;6166545;23;20405;-85
2022/08/31 08:41:24;;;;;;;3.50;3.20;;;19.10;99.90;;;;;;6167784;23;20381;-80
2022/08/31 08:43:59;;;;;;;5.13;4.63;;;19.20;99.90;;;;;;6194014;23;20550;-84
2022/08/31 08:46:33;;;;;;;4.07;3.60;;;19.50;99.90;;;;;;6195784;23;20410;-83
2022/08/31 08:49:35;;;;;;;4.00;3.10;;;19.30;99.90;;;;;;6209943;23;20434;-84
2022/08/31 08:52:10;;;;;;;10.00;3.63;;;19.40;99.90;;;;;;6208919;23;20380;-87
2022/08/31 08:54:46;;;;;;;3.60;3.30;;;19.50;99.90;;;;;;6182068;23;20387;-85
2022/08/31 08:57:26;;;;;;;5.03;3.23;;;19.60;99.90;;;;;;6175731;23;20388;-86
2022/08/31 08:59:56;;;;;;;3.67;3.00;;;19.50;99.90;;;;;;6194697;23;20409;-85
2022/08/31 09:02:36;;;;;;;5.83;4.03;;;19.30;99.90;;;;;;6169006;23;20382;-88
2022/08/31 09:05:29;;;;;;;3.20;3.00;;;19.20;99.90;;;;;;6196432;23;20613;-83
2022/08/31 09:08:31;;;;;;;4.67;3.13;;;19.20;99.90;;;;;;6196824;23;20663;-85
2022/08/31 09:11:26;;;;;;;6.27;4.73;;;19.10;99.90;;;;;;6200850;23;20405;-87
2022/08/31 09:14:37;;;;;;;8.63;4.57;;;19.10;99.90;;;;;;6180417;23;20436;-84
2022/08/31 09:17:52;;;;;;;4.00;3.60;;;19.40;99.90;;;;;;6177941;23;20570;-84
2022/08/31 09:20:27;;;;;;;4.70;3.83;;;19.40;99.90;;;;;;6175943;23;20405;-86
2022/08/31 09:22:59;;;;;;;7.00;4.30;;;19.40;99.90;;;;;;6173402;23;20427;-85
2022/08/31 09:25:33;;;;;;;3.33;3.03;;;19.60;99.90;;;;;;6198053;23;20468;-86
2022/08/31 09:28:06;;;;;;;3.10;2.90;;;19.30;99.90;;;;;;6196613;23;20395;-84
2022/08/31 09:30:42;;;;;;;5.00;2.30;;;19.50;99.90;;;;;;6196495;23;20414;-86
2022/08/31 09:33:27;;;;;;;4.43;2.73;;;19.30;99.90;;;;;;6200113;23;20436;-91
2022/08/31 09:36:18;;;;;;;3.20;2.90;;;19.20;99.90;;;;;;6194625;23;20413;-88
2022/08/31 09:38:46;;;;;;;2.93;2.63;;;19.00;99.90;;;;;;6195213;23;20417;-86
2022/08/31 09:41:29;;;;;;;3.23;2.20;;;19.40;99.90;;;;;;6167512;23;20398;-84
2022/08/31 09:44:24;;;;;;;2.60;2.40;;;20.20;99.90;;;;;;6195072;23;20450;-87
2022/08/31 09:46:56;;;;;;;4.13;2.53;;;20.50;99.90;;;;;;6195221;23;20556;-85
2022/08/31 09:49:28;;;;;;;3.30;2.10;;;20.90;99.90;;;;;;6194310;23;20500;-87
2022/08/31 09:52:17;;;;;;;2.40;2.20;;;21.20;99.90;;;;;;6191780;23;20379;-88
2022/08/31 09:55:12;;;;;;;3.43;1.77;;;21.50;99.90;;;;;;6193472;23;20388;-86
2022/08/31 09:57:55;;;;;;;4.90;3.30;;;21.40;99.90;;;;;;6191015;23;20459;-82
2022/08/31 10:00:33;;;;;;;3.37;1.97;;;21.50;99.90;;;;;;6193115;23;20453;-87
2022/08/31 10:03:12;;;;;;;2.30;2.00;;;21.40;99.90;;;;;;6189574;23;20452;-85
2022/08/31 10:05:42;;;;;;;2.23;1.93;;;21.60;99.90;;;;;;6166865;23;20364;-86
2022/08/31 10:08:14;;;;;;;4.10;1.50;;;21.50;99.90;;;;;;6192838;23;20535;-88
2022/08/31 10:10:48;;;;;;;2.07;1.40;;;21.90;99.90;;;;;;6170145;23;20407;-86
2022/08/31 10:13:35;;;;;;;3.27;1.60;;;22.30;99.90;;;;;;6193046;23;20393;-85
2022/08/31 10:16:36;;;;;;;1.40;1.30;;;22.80;99.90;;;;;;6195587;23;20344;-88
2022/08/31 10:19:52;;;;;;;5.30;2.23;;;23.20;99.90;;;;;;6177444;23;20404;-84
2022/08/31 10:22:49;;;;;;;1.67;1.50;;;23.10;99.90;;;;;;6192015;23;20417;-84
2022/08/31 10:25:40;;;;;;;3.17;1.77;;;23.30;99.90;;;;;;6169556;23;20381;-87
2022/08/31 10:28:19;;;;;;;3.67;1.90;;;22.90;99.90;;;;;;6171340;23;20426;-88
2022/08/31 10:31:19;;;;;;;3.27;2.23;;;23.20;99.90;;;;;;6193782;23;20392;-88
2022/08/31 10:36:50;;;;;;;3.20;2.33;;;23.60;99.90;;;;;;6192706;23;20373;-87
2022/08/31 10:39:35;;;;;;;2.10;1.70;;;23.60;99.90;;;;;;6191365;23;20394;-83
2022/08/31 10:42:06;;;;;;;3.33;1.93;;;23.20;99.90;;;;;;6193258;23;20385;-86
2022/08/31 10:44:55;;;;;;;2.30;2.10;;;23.40;99.90;;;;;;6191312;23;20414;-87
2022/08/31 10:47:27;;;;;;;2.80;2.50;;;24.00;99.90;;;;;;6189549;23;20364;-83
2022/08/31 10:50:04;;;;;;;4.60;2.73;;;24.20;99.90;;;;;;6191376;23;20375;-87
2022/08/31 10:52:55;;;;;;;2.70;1.50;;;24.20;99.90;;;;;;6193324;23;20445;-86
2022/08/31 10:55:47;;;;;;;2.20;2.00;;;24.50;99.90;;;;;;6190760;23;20354;-84
2022/08/31 10:58:37;;;;;;;4.80;2.20;;;24.00;99.90;;;;;;6190955;23;20389;-86
2022/08/31 11:01:53;;;;;;;4.33;2.73;;;23.80;99.90;;;;;;6204976;23;20366;-83
2022/08/31 11:04:47;;;;;;;2.80;2.30;;;23.00;99.90;;;;;;6190243;23;20781;-85
2022/08/31 11:07:54;;;;;;;3.83;2.10;;;22.10;99.90;;;;;;6163956;23;20350;-85
2022/08/31 11:10:51;;;;;;;2.33;2.13;;;22.00;99.90;;;;;;6192214;23;20401;-85
2022/08/31 11:13:52;;;;;;;3.27;1.63;;;21.90;99.90;;;;;;6180367;23;20504;-82
2022/08/31 11:16:52;;;;;;;2.77;2.33;;;21.70;99.90;;;;;;6183708;23;20435;-84
2022/08/31 11:19:47;;;;;;;2.33;2.10;;;21.00;99.90;;;;;;6188913;23;20378;-84
2022/08/31 11:22:36;;;;;;;5.10;2.03;;;20.50;99.90;;;;;;6189138;23;20935;-81
2022/08/31 11:25:23;;;;;;;2.53;1.80;;;20.40;99.90;;;;;;6190486;23;20390;-85
2022/08/31 11:28:12;;;;;;;1.63;1.53;;;20.30;99.90;;;;;;6190600;23;20400;-84
2022/08/31 11:30:47;;;;;;;2.10;2.00;;;20.40;99.90;;;;;;6164731;23;20407;-80
2022/08/31 11:33:27;;;;;;;5.80;2.03;;;20.40;99.90;;;;;;6191372;23;20469;-84
2022/08/31 11:36:00;;;;;;;2.30;2.10;;;20.30;99.90;;;;;;6193247;23;20362;-85
2022/08/31 11:38:53;;;;;;;2.53;1.10;;;20.50;99.90;;;;;;6190197;23;20383;-84
2022/08/31 11:41:47;;;;;;;2.40;1.50;;;20.60;99.90;;;;;;6191153;23;20422;-85
2022/08/31 11:44:47;;;;;;;2.43;1.70;;;20.80;99.90;;;;;;6190557;23;20339;-85
2022/08/31 11:47:29;;;;;;;3.33;1.50;;;20.90;99.90;;;;;;6181320;23;20418;-82
2022/08/31 11:50:02;;;;;;;3.50;1.30;;;20.90;99.90;;;;;;6189711;23;20987;-85
2022/08/31 11:52:46;;;;;;;1.97;1.67;;;20.90;99.90;;;;;;6164714;23;20529;-85
2022/08/31 11:55:44;;;;;;;9.10;2.17;;;21.10;99.90;;;;;;6191411;23;20359;-84
2022/08/31 11:58:38;;;;;;;2.90;1.37;;;21.20;99.90;;;;;;6189704;23;20495;-84
2022/08/31 12:01:29;;;;;;;4.00;1.50;;;21.70;99.90;;;;;;6165269;23;20390;-84
2022/08/31 12:04:04;;;;;;;2.07;1.90;;;22.10;99.90;;;;;;6165297;23;20397;-85
2022/08/31 12:06:36;;;;;;;2.17;1.60;;;21.90;99.90;;;;;;6191483;23;20360;-86
2022/08/31 12:09:22;;;;;;;2.10;1.50;;;21.90;99.90;;;;;;6187826;23;20418;-86
2022/08/31 12:12:05;;;;;;;2.07;1.87;;;22.50;99.90;;;;;;6190582;23;20476;-83
2022/08/31 12:14:50;;;;;;;1.90;1.50;;;22.90;99.90;;;;;;6192066;23;20386;-84
2022/08/31 12:17:43;;;;;;;4.23;1.50;;;23.10;99.90;;;;;;6190161;23;20496;-86
2022/08/31 12:23:53;;;;;;;2.20;1.77;;;23.00;99.90;;;;;;6193604;23;20418;-87
2022/08/31 12:26:44;;;;;;;1.83;1.73;;;22.80;99.90;;;;;;6188356;23;20432;-84
2022/08/31 12:29:29;;;;;;;1.20;1.17;;;22.80;99.90;;;;;;6189021;23;20644;-87
2022/08/31 12:32:30;;;;;;;3.00;1.87;;;22.90;99.90;;;;;;6190299;23;20470;-86
2022/08/31 12:35:23;;;;;;;1.47;1.37;;;23.10;99.90;;;;;;6186461;23;20399;-86
2022/08/31 12:38:08;;;;;;;1.80;1.50;;;23.40;99.90;;;;;;6166810;23;20433;-84
2022/08/31 12:40:50;;;;;;;1.53;1.43;;;23.40;99.90;;;;;;6201286;23;20346;-81
2022/08/31 12:43:56;;;;;;;2.33;1.40;;;23.30;99.90;;;;;;6203041;23;20393;-87
2022/08/31 12:46:47;;;;;;;1.33;1.23;;;22.80;99.90;;;;;;6174188;23;20442;-85
2022/08/31 12:49:53;;;;;;;1.57;1.47;;;23.10;99.90;;;;;;6197911;23;20759;-84
2022/08/31 12:52:34;;;;;;;1.90;1.50;;;23.50;99.90;;;;;;6193425;23;20410;-84
2022/08/31 12:55:14;;;;;;;5.03;1.43;;;23.30;99.90;;;;;;6192264;23;20994;-82
2022/08/31 12:58:04;;;;;;;1.60;1.50;;;22.90;99.90;;;;;;6191254;23;20356;-83
2022/08/31 13:00:38;;;;;;;2.47;1.27;;;22.70;99.90;;;;;;6191893;23;20446;-85
2022/08/31 13:03:28;;;;;;;1.70;1.60;;;22.60;99.90;;;;;;6192204;23;20375;-85
2022/08/31 13:06:14;;;;;;;1.33;1.20;;;22.80;99.90;;;;;;6193377;23;20749;-83
2022/08/31 13:08:48;;;;;;;4.73;1.57;;;23.30;99.90;;;;;;6192605;23;20485;-83
2022/08/31 13:11:41;;;;;;;1.90;1.10;;;23.70;99.90;;;;;;6193600;23;20421;-87
2022/08/31 13:14:23;;;;;;;1.40;1.30;;;23.60;99.90;;;;;;6193591;23;20449;-82
2022/08/31 13:16:53;;;;;;;4.50;1.60;;;23.10;99.90;;;;;;6194133;23;20356;-84
2022/08/31 13:19:31;;;;;;;1.50;1.40;;;22.90;99.90;;;;;;6191736;23;20482;-86
2022/08/31 13:22:07;;;;;;;1.93;1.40;;;23.00;99.90;;;;;;6191491;23;20383;-82
2022/08/31 13:24:41;;;;;;;1.23;1.13;;;23.00;99.90;;;;;;6204352;23;20394;-81
2022/08/31 13:27:23;;;;;;;5.17;1.53;;;22.90;99.90;;;;;;6208528;23;20393;-84
2022/08/31 13:29:52;;;;;;;1.83;1.53;;;23.00;99.90;;;;;;6203219;23;20408;-85
2022/08/31 13:32:33;;;;;;;2.20;1.37;;;23.20;99.90;;;;;;6167614;23;20428;-87
2022/08/31 13:35:09;;;;;;;1.43;1.33;;;23.20;99.90;;;;;;6191940;23;20397;-82
2022/08/31 13:37:59;;;;;;;1.70;1.60;;;23.10;99.90;;;;;;6192020;23;20347;-85
2022/08/31 13:40:27;;;;;;;1.60;1.50;;;23.00;99.90;;;;;;6189860;23;20437;-83
2022/08/31 13:42:56;;;;;;;1.30;1.17;;;23.00;99.90;;;;;;6191487;23;20404;-83
2022/08/31 13:45:33;;;;;;;1.30;1.20;;;22.90;99.90;;;;;;6192717;23;20382;-85
2022/08/31 13:48:05;;;;;;;3.03;1.90;;;22.50;99.90;;;;;;6189456;23;20370;-80